Flight Track Log - Related Links

Times and Time Zones

All times are in EDT time to prevent confusion due to time zone crossing. See the SKW6338 flight status page for this flight to view local times or setup timezone preferences in your user account.

Time Position Orientation Groundspeed Altitude Reporting Facility
EDT Latitude Longitude Course Direction KTS MPH feet Rate Location/Type
Wed 07:34:13 PM 33.9000 -118.4667 185° South 186 214 2,500  Level Southern California TRACON
Wed 07:35:22 PM 33.8572 -118.4714 185° South 198 228 3,600 1,191 Climbing Los Angeles Center
Wed 07:36:24 PM 33.7911 -118.4689 178° South 213 245 5,100 1,403 Climbing Los Angeles Center
Wed 07:37:26 PM 33.7256 -118.4344 156° South 226 260 6,500 1,258 Climbing Los Angeles Center
Wed 07:38:28 PM 33.6756 -118.3850 141° Southeast 234 269 7,700 1,161 Climbing Los Angeles Center
Wed 07:39:30 PM 33.6378 -118.3258 127° Southeast 234 269 8,900 629 Climbing Los Angeles Center
Wed 07:40:32 PM 33.6006 -118.2536 122° Southeast 247 284 9,000 48 Climbing Los Angeles Center
Wed 07:41:35 PM 33.5567 -118.1644 121° Southeast 257 296 9,000  Level Los Angeles Center
Wed 07:42:37 PM 33.5164 -118.0928 124° Southeast 259 298 9,000  Level Los Angeles Center
Wed 07:43:39 PM 33.4756 -118.0222 125° Southeast 258 297 9,000  Level Los Angeles Center
Wed 07:44:41 PM 33.4353 -117.9506 124° Southeast 259 298 9,000  Level Los Angeles Center
Wed 07:45:43 PM 33.3958 -117.8789 123° Southeast 259 298 9,000 48 Level Los Angeles Center
Wed 07:46:45 PM 33.3475 -117.7947 124° Southeast 258 297 9,100 48 Climbing Los Angeles Center
Wed 07:47:47 PM 33.3069 -117.7239 124° Southeast 258 297 9,100  Level Los Angeles Center
Wed 07:48:49 PM 33.2642 -117.6544 126° Southeast 259 298 9,100  Level Los Angeles Center
Wed 07:49:52 PM 33.2061 -117.6042 144° Southeast 256 295 9,100  Level Los Angeles Center
Wed 07:50:53 PM 33.1472 -117.5558 145° Southeast 258 297 9,100  Level Los Angeles Center
Wed 07:51:56 PM 33.0894 -117.5042 143° Southeast 259 298 9,100 -48 Level Los Angeles Center
Wed 07:52:58 PM 33.0206 -117.4419 143° Southeast 260 299 9,000 -435 Descending Los Angeles Center
Wed 07:54:00 PM 32.9681 -117.3806 136° Southeast 264 304 8,200 -919 Descending Los Angeles Center
Wed 07:55:02 PM 32.9131 -117.3117 134° Southeast 282 325 7,100 -871 Descending Los Angeles Center
Wed 07:56:04 PM 32.8589 -117.2464 135° Southeast 280 322 6,400 -726 Descending Los Angeles Center
Wed 07:57:06 PM 32.8064 -117.1789 133° Southeast 279 321 5,600 -629 Descending Los Angeles Center
Wed 07:58:08 PM 32.7781 -117.0867 110° East 279 321 5,100 -290 Descending Los Angeles Center
Wed 07:59:10 PM 32.7558 -117.0022 107° East 267 307 5,000 -339 Descending Los Angeles Center
Wed 08:00:12 PM 32.7081 -116.9444 134° Southeast 235 270 4,400 -629 Descending Los Angeles Center
Wed 08:01:14 PM 32.6856 -117.0033 246° West 224 258 3,700 -677 Descending Los Angeles Center

Login

Don't have an account? Register now (free) for customized features, flight alerts, and more!